Time;durP1;ratioP1;P1;durP2;ratioP2;P2;SDS_P1;SDS_P2;PMS_P1;PMS_P2;Temp;Humidity;BMP_temperature;BMP_pressure;BME280_temperature;BME280_humidity;BME280_pressure;Samples;Min_cycle;Max_cycle;Signal;HPM_P1;HPM_P2
2023/10/04 00:00:50;;;;;;;5.70;3.23;;;11.60;99.90;;;;;;5015395;28;20191;-82
2023/10/04 00:03:16;;;;;;;9.68;3.72;;;11.50;99.90;;;;;;5015339;28;20553;-82
2023/10/04 00:05:42;;;;;;;8.80;3.37;;;11.60;99.90;;;;;;5015582;28;20190;-82
2023/10/04 00:08:07;;;;;;;6.23;2.60;;;11.50;99.90;;;;;;5015837;28;20421;-82
2023/10/04 00:10:33;;;;;;;4.77;2.43;;;11.40;99.90;;;;;;5015624;28;20418;-82
2023/10/04 00:12:59;;;;;;;7.40;3.20;;;11.40;99.90;;;;;;4983141;28;20582;-82
2023/10/04 00:15:31;;;;;;;5.33;3.30;;;11.40;99.90;;;;;;5015623;28;20194;-82
2023/10/04 00:17:57;;;;;;;8.10;2.67;;;11.30;99.90;;;;;;5000178;28;20577;-82
2023/10/04 00:20:31;;;;;;;5.37;3.17;;;11.20;99.90;;;;;;5016853;28;20414;-82
2023/10/04 00:22:57;;;;;;;7.07;2.70;;;11.10;99.90;;;;;;5015335;28;20159;-82
2023/10/04 00:25:25;;;;;;;6.50;2.50;;;11.20;99.90;;;;;;5016265;28;20186;-82
2023/10/04 00:27:56;;;;;;;5.95;2.80;;;11.00;99.90;;;;;;4999459;28;20422;-82
2023/10/04 00:30:26;;;;;;;12.23;3.30;;;10.80;99.90;;;;;;5027716;28;20190;-82
2023/10/04 00:32:56;;;;;;;11.07;3.28;;;10.90;99.90;;;;;;5018777;28;20798;-82
2023/10/04 00:35:22;;;;;;;6.53;2.65;;;11.00;99.90;;;;;;5036199;28;20250;-82
2023/10/04 00:37:56;;;;;;;6.38;3.38;;;10.90;99.90;;;;;;5035799;28;20549;-82
2023/10/04 00:40:32;;;;;;;5.80;2.80;;;11.00;99.90;;;;;;5019260;28;20197;-82
2023/10/04 00:43:01;;;;;;;7.10;2.78;;;10.90;99.90;;;;;;5036619;28;20165;-82
2023/10/04 00:45:28;;;;;;;6.57;2.97;;;11.00;99.90;;;;;;5039482;28;20226;-82
2023/10/04 00:47:58;;;;;;;6.95;2.85;;;11.10;99.90;;;;;;5038125;28;20639;-82
2023/10/04 00:50:31;;;;;;;8.00;2.97;;;11.20;99.90;;;;;;5034981;28;20178;-82
2023/10/04 00:53:08;;;;;;;5.60;2.97;;;11.20;99.90;;;;;;5035614;28;20576;-82
2023/10/04 00:55:45;;;;;;;12.25;3.53;;;11.30;99.90;;;;;;5034286;28;20255;-82
2023/10/04 00:58:13;;;;;;;8.73;2.50;;;11.30;99.90;;;;;;5034404;28;20189;-82
2023/10/04 01:00:40;;;;;;;9.23;2.88;;;11.20;99.90;;;;;;5034046;28;20273;-83
2023/10/04 01:03:09;;;;;;;8.73;2.85;;;11.10;99.90;;;;;;5034433;28;20186;-82
2023/10/04 01:05:47;;;;;;;7.15;2.92;;;11.20;99.90;;;;;;5034193;28;20178;-82
2023/10/04 01:08:20;;;;;;;9.93;3.10;;;11.20;99.90;;;;;;5035626;28;20223;-82
2023/10/04 01:10:53;;;;;;;10.18;2.63;;;11.30;99.90;;;;;;5034350;28;20166;-82
2023/10/04 01:13:26;;;;;;;9.63;4.00;;;11.40;99.90;;;;;;5018250;28;20269;-82
2023/10/04 01:15:55;;;;;;;7.82;2.95;;;11.40;99.90;;;;;;5034160;28;20293;-82
2023/10/04 01:18:22;;;;;;;10.07;3.13;;;11.40;99.90;;;;;;5035680;28;20209;-82
2023/10/04 01:20:48;;;;;;;4.18;2.95;;;11.40;99.90;;;;;;5026177;28;20237;-82
2023/10/04 01:23:14;;;;;;;11.47;2.57;;;11.50;99.90;;;;;;5014435;28;20187;-82
2023/10/04 01:25:42;;;;;;;7.43;3.00;;;11.50;99.90;;;;;;5014594;28;20418;-82
2023/10/04 01:28:12;;;;;;;9.77;3.95;;;11.60;99.90;;;;;;5014149;28;20765;-82
2023/10/04 01:30:43;;;;;;;9.23;2.75;;;11.60;99.90;;;;;;5014452;28;20229;-82
2023/10/04 01:33:18;;;;;;;6.30;2.95;;;11.60;99.90;;;;;;4997379;28;20264;-82
2023/10/04 01:35:46;;;;;;;13.95;2.70;;;11.60;99.90;;;;;;5014336;28;20167;-82
2023/10/04 01:38:13;;;;;;;6.60;2.40;;;11.60;99.90;;;;;;5015027;28;20219;-82
2023/10/04 01:40:39;;;;;;;11.27;2.90;;;11.60;99.90;;;;;;4997953;28;20187;-82
2023/10/04 01:43:15;;;;;;;3.42;2.30;;;11.60;99.90;;;;;;4997937;28;20183;-82
2023/10/04 01:45:43;;;;;;;18.48;3.05;;;11.60;99.90;;;;;;5015087;28;20714;-82
2023/10/04 01:48:09;;;;;;;12.13;2.47;;;11.70;99.90;;;;;;5015145;28;20186;-82
2023/10/04 01:50:34;;;;;;;10.83;3.17;;;11.80;99.90;;;;;;5014101;28;20421;-82
2023/10/04 01:53:01;;;;;;;6.30;3.00;;;11.80;99.90;;;;;;4981134;28;20465;-82
2023/10/04 01:55:26;;;;;;;8.30;2.38;;;11.70;99.90;;;;;;5013328;28;20175;-82
2023/10/04 01:57:52;;;;;;;14.73;2.47;;;11.80;99.90;;;;;;5013797;28;20614;-82
2023/10/04 02:00:20;;;;;;;9.67;2.33;;;11.80;99.90;;;;;;4981348;28;20214;-82
2023/10/04 02:02:47;;;;;;;6.88;2.17;;;11.80;99.90;;;;;;4998151;28;20269;-82
2023/10/04 02:05:16;;;;;;;6.05;1.95;;;11.80;99.90;;;;;;5013449;28;20189;-82
2023/10/04 02:07:44;;;;;;;9.88;2.63;;;11.90;99.90;;;;;;4998335;28;20270;-82
2023/10/04 02:10:11;;;;;;;7.87;2.30;;;11.90;99.90;;;;;;5013856;28;20207;-82
2023/10/04 02:12:37;;;;;;;10.50;2.45;;;11.90;99.90;;;;;;5014015;28;20414;-82
2023/10/04 02:15:06;;;;;;;5.07;2.27;;;11.80;99.90;;;;;;4996639;28;20186;-82
2023/10/04 02:17:31;;;;;;;14.77;2.60;;;11.90;99.90;;;;;;5003336;28;21027;-82
2023/10/04 02:19:57;;;;;;;6.10;2.77;;;11.90;99.90;;;;;;5000919;28;20281;-82
2023/10/04 02:22:23;;;;;;;10.97;2.90;;;11.90;99.90;;;;;;5033815;28;20520;-82
2023/10/04 02:24:49;;;;;;;9.33;2.33;;;11.90;99.90;;;;;;5001856;28;20368;-82
2023/10/04 02:27:17;;;;;;;10.83;3.17;;;11.90;99.90;;;;;;5037704;28;20452;-82
2023/10/04 02:29:44;;;;;;;6.67;2.27;;;11.90;99.90;;;;;;5038595;28;20416;-82
2023/10/04 02:32:10;;;;;;;7.43;2.87;;;11.90;99.90;;;;;;5037380;28;21333;-82
2023/10/04 02:34:38;;;;;;;11.13;3.10;;;11.90;99.90;;;;;;5021305;28;20431;-82
2023/10/04 02:37:07;;;;;;;6.80;2.35;;;11.90;99.90;;;;;;5038662;28;20200;-82
2023/10/04 02:39:38;;;;;;;5.75;2.45;;;11.90;99.90;;;;;;5039102;28;20631;-82
2023/10/04 02:42:09;;;;;;;8.23;2.80;;;11.90;99.90;;;;;;5037570;28;20163;-82
2023/10/04 02:44:39;;;;;;;8.67;2.77;;;11.90;99.90;;;;;;5037333;28;20228;-82
2023/10/04 02:47:08;;;;;;;5.20;2.72;;;11.90;99.90;;;;;;5036906;28;20487;-82
2023/10/04 02:49:37;;;;;;;10.80;2.40;;;12.00;99.90;;;;;;5040317;28;20209;-82
2023/10/04 02:52:06;;;;;;;12.68;2.72;;;11.90;99.90;;;;;;5024767;28;20193;-81
2023/10/04 02:54:32;;;;;;;5.68;2.20;;;12.00;99.90;;;;;;5021074;28;20178;-82
2023/10/04 02:56:59;;;;;;;6.03;2.00;;;12.00;99.90;;;;;;5020781;28;20214;-81
2023/10/04 02:59:25;;;;;;;7.03;2.47;;;12.00;99.90;;;;;;5038879;28;20174;-81
2023/10/04 03:01:51;;;;;;;12.23;2.77;;;12.00;99.90;;;;;;5023554;28;20522;-82
2023/10/04 03:04:18;;;;;;;6.37;2.30;;;12.00;99.90;;;;;;5038476;28;20221;-82
2023/10/04 03:06:45;;;;;;;9.30;2.30;;;12.00;99.90;;;;;;5037153;28;20773;-82
2023/10/04 03:09:12;;;;;;;15.77;2.60;;;12.00;99.90;;;;;;5036702;28;20181;-82
2023/10/04 03:11:39;;;;;;;6.45;2.30;;;12.00;99.90;;;;;;5037875;28;20178;-82
2023/10/04 03:14:07;;;;;;;13.13;2.73;;;12.00;99.90;;;;;;5020609;28;20242;-82
2023/10/04 03:16:34;;;;;;;8.98;2.63;;;12.00;99.90;;;;;;5036441;28;20526;-82
2023/10/04 03:19:00;;;;;;;8.95;2.58;;;12.00;99.90;;;;;;5036554;28;20178;-82
2023/10/04 03:21:30;;;;;;;8.87;2.50;;;12.00;99.90;;;;;;5036620;28;20190;-82
2023/10/04 03:23:58;;;;;;;5.07;2.27;;;11.90;99.90;;;;;;5036255;28;20420;-82
2023/10/04 03:26:24;;;;;;;5.80;2.23;;;12.00;99.90;;;;;;5036577;28;20479;-82
2023/10/04 03:28:50;;;;;;;9.60;2.50;;;12.00;99.90;;;;;;5023924;28;20438;-82
2023/10/04 03:31:18;;;;;;;8.63;2.43;;;12.00;99.90;;;;;;5010604;28;20433;-82
2023/10/04 03:33:44;;;;;;;8.57;3.00;;;12.10;99.90;;;;;;5000286;28;20512;-82
2023/10/04 03:36:14;;;;;;;6.43;2.10;;;12.10;99.90;;;;;;5031282;28;20466;-82
2023/10/04 03:38:41;;;;;;;11.77;2.55;;;12.00;99.90;;;;;;5016622;28;20429;-82
2023/10/04 03:41:06;;;;;;;7.30;2.80;;;12.00;99.90;;;;;;5016148;28;20182;-81
2023/10/04 03:43:35;;;;;;;11.33;2.83;;;12.00;99.90;;;;;;5016636;28;20426;-82
2023/10/04 03:46:08;;;;;;;4.85;1.90;;;12.10;99.90;;;;;;5015913;28;20257;-82
2023/10/04 03:48:37;;;;;;;16.23;4.90;;;12.10;99.90;;;;;;5017883;28;20166;-82
2023/10/04 03:51:03;;;;;;;8.97;2.50;;;12.10;99.90;;;;;;5016043;28;20183;-82
2023/10/04 03:53:29;;;;;;;11.90;2.55;;;12.00;99.90;;;;;;5032756;28;20441;-82
2023/10/04 03:55:59;;;;;;;8.87;3.00;;;12.00;99.90;;;;;;5016079;28;20186;-82
2023/10/04 03:58:24;;;;;;;8.73;2.83;;;12.00;99.90;;;;;;4998877;28;20197;-82
2023/10/04 04:00:50;;;;;;;7.10;2.37;;;12.00;99.90;;;;;;4999927;28;20910;-82
2023/10/04 04:03:16;;;;;;;9.48;2.80;;;12.00;99.90;;;;;;5016286;28;20202;-82
2023/10/04 04:05:42;;;;;;;15.60;3.00;;;12.00;99.90;;;;;;5016055;28;20543;-82
2023/10/04 04:08:13;;;;;;;12.40;3.57;;;11.90;99.90;;;;;;4999351;28;21004;-82
2023/10/04 04:10:40;;;;;;;14.40;2.80;;;12.00;99.90;;;;;;5017045;28;20187;-82
2023/10/04 04:13:06;;;;;;;7.95;2.15;;;11.90;99.90;;;;;;5015619;28;20190;-82
2023/10/04 04:15:35;;;;;;;9.73;3.03;;;11.80;99.90;;;;;;5015437;28;20187;-82
2023/10/04 04:18:10;;;;;;;9.40;2.83;;;11.90;99.90;;;;;;5017153;28;20289;-82
2023/10/04 04:20:35;;;;;;;11.07;2.70;;;11.80;99.90;;;;;;5000314;28;20421;-82
2023/10/04 04:23:05;;;;;;;9.03;2.97;;;11.70;99.90;;;;;;5023708;28;20428;-82
2023/10/04 04:25:30;;;;;;;13.10;3.30;;;11.80;99.90;;;;;;5053361;28;20182;-81
2023/10/04 04:27:59;;;;;;;6.70;2.40;;;11.70;99.90;;;;;;5035475;28;20553;-81
2023/10/04 04:30:31;;;;;;;8.70;2.45;;;11.60;99.90;;;;;;5035140;28;20209;-81
2023/10/04 04:32:57;;;;;;;7.40;3.03;;;11.60;99.90;;;;;;5035464;28;20167;-81
2023/10/04 04:35:47;;;;;;;8.80;3.03;;;11.60;99.90;;;;;;5035317;28;20505;-81
2023/10/04 04:40:49;;;;;;;11.00;4.03;;;11.60;99.90;;;;;;5016717;28;20191;-82
2023/10/04 04:43:23;;;;;;;10.47;2.50;;;11.60;99.90;;;;;;5016381;28;20932;-81
2023/10/04 04:45:52;;;;;;;18.70;3.22;;;11.50;99.90;;;;;;5016276;28;20473;-81
2023/10/04 04:48:23;;;;;;;7.72;2.60;;;11.50;99.90;;;;;;5015033;28;20703;-81
2023/10/04 04:51:02;;;;;;;10.48;2.50;;;11.40;99.90;;;;;;5015496;28;20174;-81
2023/10/04 04:53:28;;;;;;;12.55;2.83;;;11.40;99.90;;;;;;5016069;28;20638;-81
2023/10/04 04:55:54;;;;;;;6.50;3.00;;;11.40;99.90;;;;;;4998573;28;20261;-81
2023/10/04 04:58:22;;;;;;;11.45;3.08;;;11.40;99.90;;;;;;5016706;28;20183;-82
2023/10/04 05:00:55;;;;;;;8.85;3.75;;;11.40;99.90;;;;;;5016483;28;20183;-81
2023/10/04 05:03:26;;;;;;;12.90;3.60;;;11.40;99.90;;;;;;5015078;28;20179;-81
2023/10/04 05:05:52;;;;;;;12.85;2.40;;;11.40;99.90;;;;;;4999539;28;20183;-81
2023/10/04 05:08:18;;;;;;;12.60;2.70;;;11.40;99.90;;;;;;5014687;28;20273;-81
2023/10/04 05:10:46;;;;;;;8.90;2.90;;;11.40;99.90;;;;;;5016011;28;20179;-82
2023/10/04 05:13:18;;;;;;;9.20;2.65;;;11.40;99.90;;;;;;5014734;28;20453;-81
2023/10/04 05:15:49;;;;;;;11.95;3.10;;;11.40;99.90;;;;;;5017395;28;20191;-81
2023/10/04 05:18:15;;;;;;;9.95;2.50;;;11.40;99.90;;;;;;5016846;28;20175;-81
2023/10/04 05:20:42;;;;;;;12.70;3.37;;;11.40;99.90;;;;;;4986954;28;20217;-82
2023/10/04 05:23:09;;;;;;;8.05;2.67;;;11.40;99.90;;;;;;5024597;28;20413;-82
2023/10/04 05:25:35;;;;;;;9.25;2.70;;;11.40;99.90;;;;;;5017477;28;20190;-81
2023/10/04 05:28:09;;;;;;;10.07;3.10;;;11.40;99.90;;;;;;5033306;28;20696;-81
2023/10/04 05:30:37;;;;;;;8.85;2.65;;;11.40;99.90;;;;;;5017755;28;20183;-82
2023/10/04 05:33:02;;;;;;;9.50;2.63;;;11.40;99.90;;;;;;5017315;28;20185;-81
2023/10/04 05:35:28;;;;;;;7.77;2.63;;;11.20;99.90;;;;;;5034345;28;20179;-81
2023/10/04 05:37:54;;;;;;;12.23;2.90;;;11.30;99.90;;;;;;5017705;28;20248;-82
2023/10/04 05:40:25;;;;;;;11.10;4.43;;;11.20;99.90;;;;;;5033836;28;20440;-81
2023/10/04 05:42:53;;;;;;;15.07;3.75;;;11.00;99.90;;;;;;5034562;28;20512;-81
2023/10/04 05:45:22;;;;;;;13.80;3.40;;;11.00;99.90;;;;;;5034654;28;20247;-81
2023/10/04 05:47:50;;;;;;;8.88;2.92;;;11.00;99.90;;;;;;5035476;28;20201;-81
2023/10/04 05:50:22;;;;;;;10.27;2.95;;;11.00;99.90;;;;;;5034040;28;20525;-81
2023/10/04 05:52:49;;;;;;;12.55;3.50;;;11.10;99.90;;;;;;5018496;28;20238;-81
2023/10/04 05:55:17;;;;;;;8.02;3.03;;;11.00;99.90;;;;;;5034051;28;20182;-81
2023/10/04 05:57:46;;;;;;;8.45;2.90;;;11.00;99.90;;;;;;5001274;28;20210;-82
2023/10/04 06:00:23;;;;;;;5.80;2.53;;;11.00;99.90;;;;;;5014962;28;20210;-82
2023/10/04 06:02:50;;;;;;;7.65;2.45;;;11.00;99.90;;;;;;5018865;28;20188;-81
2023/10/04 06:05:16;;;;;;;7.25;3.13;;;11.00;99.90;;;;;;5017155;28;20240;-81
2023/10/04 06:07:43;;;;;;;7.97;2.78;;;11.00;99.90;;;;;;5003023;28;20285;-81
2023/10/04 06:10:11;;;;;;;7.43;3.40;;;11.00;99.90;;;;;;5015145;28;20179;-81
2023/10/04 06:12:38;;;;;;;7.35;2.67;;;11.00;99.90;;;;;;4998300;28;20218;-81
2023/10/04 06:15:04;;;;;;;11.93;2.70;;;11.00;99.90;;;;;;4997942;28;20182;-81
2023/10/04 06:17:31;;;;;;;10.57;4.75;;;11.00;99.90;;;;;;5015180;28;20261;-81
2023/10/04 06:19:57;;;;;;;12.35;3.42;;;11.10;99.90;;;;;;5015968;28;20270;-81
2023/10/04 06:22:23;;;;;;;12.23;3.10;;;11.10;99.90;;;;;;5018520;28;20240;-81
2023/10/04 06:24:49;;;;;;;10.53;3.50;;;11.20;99.90;;;;;;5035534;28;20197;-81
2023/10/04 06:27:15;;;;;;;6.57;2.73;;;11.20;99.90;;;;;;5036145;28;20186;-81
2023/10/04 06:29:41;;;;;;;11.23;3.03;;;11.20;99.90;;;;;;5017362;28;20424;-81
2023/10/04 06:32:07;;;;;;;11.63;3.90;;;11.30;99.90;;;;;;5016932;28;20193;-82
2023/10/04 06:34:32;;;;;;;12.67;3.43;;;11.30;99.90;;;;;;5033535;28;20417;-81
2023/10/04 06:36:58;;;;;;;12.50;3.27;;;11.30;99.90;;;;;;5034871;28;20210;-81
2023/10/04 06:39:23;;;;;;;8.03;2.53;;;11.40;99.90;;;;;;5016933;28;20224;-81
2023/10/04 06:41:49;;;;;;;10.03;3.60;;;11.40;99.90;;;;;;5017032;28;20224;-83
2023/10/04 06:44:15;;;;;;;7.77;3.27;;;11.50;99.90;;;;;;5033762;28;20174;-83
2023/10/04 06:46:40;;;;;;;10.70;3.37;;;11.50;99.90;;;;;;5032380;28;20241;-83
2023/10/04 06:49:06;;;;;;;9.40;2.93;;;11.60;99.90;;;;;;5015923;28;20547;-82
2023/10/04 06:51:31;;;;;;;6.60;2.70;;;11.70;99.90;;;;;;5016371;28;20185;-83
2023/10/04 06:53:58;;;;;;;13.00;2.90;;;11.70;99.90;;;;;;5032086;28;20273;-83
2023/10/04 06:56:24;;;;;;;6.07;2.60;;;11.80;99.90;;;;;;5015991;28;20575;-83
2023/10/04 06:58:50;;;;;;;8.83;3.10;;;11.80;99.90;;;;;;5032593;28;20230;-83
2023/10/04 07:01:16;;;;;;;13.63;3.67;;;11.80;99.90;;;;;;5016323;28;20776;-83
2023/10/04 07:03:43;;;;;;;10.07;4.20;;;11.90;99.90;;;;;;5015955;28;20417;-83
2023/10/04 07:06:09;;;;;;;9.27;3.08;;;12.00;99.90;;;;;;5032216;28;20182;-83
2023/10/04 07:08:35;;;;;;;9.80;3.43;;;12.00;99.90;;;;;;5032391;28;20189;-83
2023/10/04 07:11:03;;;;;;;13.97;3.17;;;12.10;99.90;;;;;;5032508;28;20174;-83
2023/10/04 07:13:32;;;;;;;6.97;2.30;;;12.10;99.90;;;;;;5019235;28;20987;-83
2023/10/04 07:15:58;;;;;;;11.00;2.70;;;12.20;99.90;;;;;;5035885;28;20944;-83
2023/10/04 07:18:24;;;;;;;10.83;2.60;;;12.30;99.90;;;;;;5002819;28;20443;-83
2023/10/04 07:20:50;;;;;;;11.07;2.93;;;12.30;99.90;;;;;;5036160;28;20478;-83
2023/10/04 07:23:16;;;;;;;16.47;3.60;;;12.30;99.90;;;;;;5019275;28;20784;-83
2023/10/04 07:25:44;;;;;;;11.13;3.23;;;12.30;99.90;;;;;;5035880;28;20788;-83
2023/10/04 07:28:09;;;;;;;13.20;3.60;;;12.40;99.90;;;;;;5019348;28;20433;-83
2023/10/04 07:30:35;;;;;;;9.73;3.70;;;12.50;99.90;;;;;;5020364;28;20425;-83
2023/10/04 07:33:01;;;;;;;9.50;3.43;;;12.60;99.90;;;;;;5037047;28;20627;-83
2023/10/04 07:35:28;;;;;;;12.77;2.70;;;12.70;99.90;;;;;;5027042;28;20436;-83
2023/10/04 07:37:55;;;;;;;7.20;2.70;;;12.70;99.90;;;;;;5035459;28;20206;-83
2023/10/04 07:40:23;;;;;;;11.03;3.40;;;12.80;99.90;;;;;;5036041;28;20417;-83
2023/10/04 07:42:53;;;;;;;15.07;3.10;;;12.80;99.90;;;;;;5036416;28;20420;-83
2023/10/04 07:45:21;;;;;;;8.80;3.07;;;12.80;99.90;;;;;;5034757;28;20483;-83
2023/10/04 07:47:47;;;;;;;6.80;2.60;;;12.90;99.90;;;;;;5035809;28;20409;-83
2023/10/04 07:50:15;;;;;;;9.87;4.43;;;13.00;99.90;;;;;;5035055;28;20463;-83
2023/10/04 07:52:44;;;;;;;11.23;3.00;;;13.10;99.90;;;;;;5035298;28;20209;-83
2023/10/04 07:55:22;;;;;;;12.80;2.90;;;13.10;99.90;;;;;;5036015;28;20402;-83
2023/10/04 07:57:49;;;;;;;7.73;2.30;;;13.10;99.90;;;;;;5005721;28;20465;-83
2023/10/04 08:00:16;;;;;;;7.80;3.00;;;13.20;99.90;;;;;;5036138;28;20420;-83
2023/10/04 08:02:49;;;;;;;15.03;2.87;;;13.30;99.90;;;;;;5034925;28;20471;-83
2023/10/04 08:05:20;;;;;;;11.77;2.70;;;13.40;99.90;;;;;;5017845;28;20533;-83
2023/10/04 08:07:48;;;;;;;8.40;3.23;;;13.40;99.90;;;;;;5016809;28;20496;-84
2023/10/04 08:10:14;;;;;;;11.20;3.60;;;13.60;99.90;;;;;;5017100;28;20410;-83
2023/10/04 08:12:42;;;;;;;9.80;2.40;;;13.60;99.90;;;;;;5016957;28;20781;-83
2023/10/04 08:15:08;;;;;;;10.37;2.70;;;13.60;99.90;;;;;;5035513;28;20917;-83
2023/10/04 08:17:34;;;;;;;8.80;3.10;;;13.60;99.90;;;;;;5035606;28;20501;-83
2023/10/04 08:20:00;;;;;;;12.53;2.70;;;13.70;99.90;;;;;;5035469;28;20421;-83
2023/10/04 08:22:25;;;;;;;10.23;3.57;;;13.70;99.90;;;;;;5034631;28;20224;-83
2023/10/04 08:24:53;;;;;;;18.77;3.40;;;13.80;99.90;;;;;;5018954;28;20227;-83
2023/10/04 08:27:18;;;;;;;13.00;3.03;;;13.70;99.90;;;;;;5036148;28;20182;-83
2023/10/04 08:29:44;;;;;;;10.33;2.80;;;13.80;99.90;;;;;;5035005;28;20546;-83
2023/10/04 08:32:10;;;;;;;13.57;3.10;;;13.80;99.90;;;;;;5036029;28;20666;-83
2023/10/04 08:34:37;;;;;;;11.57;3.30;;;13.90;99.90;;;;;;5034782;28;20186;-83
2023/10/04 08:37:03;;;;;;;10.60;3.00;;;14.00;99.90;;;;;;5018602;28;20464;-83
2023/10/04 08:39:29;;;;;;;11.20;2.90;;;14.00;99.90;;;;;;5035827;28;20777;-83
2023/10/04 08:41:55;;;;;;;13.07;3.30;;;14.00;99.90;;;;;;5018846;28;20513;-84
2023/10/04 08:44:21;;;;;;;8.37;3.30;;;14.20;99.90;;;;;;5002053;28;20456;-83
2023/10/04 08:46:47;;;;;;;10.67;2.63;;;14.20;99.90;;;;;;5018705;28;20514;-84
2023/10/04 08:49:15;;;;;;;9.70;3.20;;;14.40;99.90;;;;;;5036831;28;20257;-83
2023/10/04 08:51:41;;;;;;;13.93;2.90;;;14.60;99.90;;;;;;5018856;28;20788;-84
2023/10/04 08:54:20;;;;;;;9.13;3.40;;;14.90;99.90;;;;;;5035057;28;20452;-84
2023/10/04 08:56:55;;;;;;;10.70;2.73;;;15.30;99.90;;;;;;5036629;28;20205;-84
2023/10/04 08:59:24;;;;;;;10.07;2.97;;;15.40;99.90;;;;;;5036256;28;20424;-85
2023/10/04 09:01:50;;;;;;;12.97;2.93;;;15.70;99.90;;;;;;5037202;28;20739;-85
2023/10/04 09:04:18;;;;;;;13.17;3.00;;;15.80;99.90;;;;;;5020590;28;20459;-83
2023/10/04 09:06:45;;;;;;;7.63;2.37;;;15.90;99.90;;;;;;5020888;28;20384;-83
2023/10/04 09:09:14;;;;;;;10.03;2.60;;;15.90;99.90;;;;;;5037797;28;20415;-83
2023/10/04 09:11:41;;;;;;;7.97;2.53;;;16.20;99.90;;;;;;5036311;28;20504;-84
2023/10/04 09:14:07;;;;;;;8.13;2.87;;;16.10;99.90;;;;;;5036512;28;20428;-84
2023/10/04 09:16:33;;;;;;;13.80;3.30;;;16.40;99.90;;;;;;5038288;28;20499;-84
2023/10/04 09:19:25;;;;;;;8.23;2.53;;;16.70;99.90;;;;;;5018753;28;20408;-84
2023/10/04 09:21:51;;;;;;;15.00;3.37;;;16.60;99.90;;;;;;5033029;28;20435;-84
2023/10/04 09:24:17;;;;;;;8.90;2.97;;;17.10;99.90;;;;;;5036004;28;20890;-84
2023/10/04 09:26:52;;;;;;;6.17;2.57;;;17.00;99.90;;;;;;5035001;28;20409;-87
2023/10/04 09:29:38;;;;;;;13.50;3.23;;;16.70;99.90;;;;;;5035046;28;20416;-85
2023/10/04 09:32:05;;;;;;;10.13;3.10;;;16.80;99.90;;;;;;5037875;28;20397;-84
2023/10/04 09:34:33;;;;;;;10.20;3.27;;;17.00;99.90;;;;;;5035886;28;20420;-84
2023/10/04 09:36:59;;;;;;;7.70;2.73;;;16.90;99.90;;;;;;5035664;28;21028;-84
2023/10/04 09:39:31;;;;;;;7.67;2.60;;;17.20;99.90;;;;;;5034083;28;20780;-85
2023/10/04 09:41:58;;;;;;;9.20;3.27;;;17.80;99.90;;;;;;5034459;28;20409;-86
2023/10/04 09:44:29;;;;;;;5.77;2.40;;;18.00;99.90;;;;;;5011400;28;20436;-86
2023/10/04 09:46:57;;;;;;;9.67;2.73;;;18.10;99.90;;;;;;5046900;28;20470;-88
2023/10/04 09:49:25;;;;;;;6.93;2.70;;;17.80;99.90;;;;;;5022978;28;20479;-85
2023/10/04 09:51:53;;;;;;;7.40;2.50;;;17.50;99.90;;;;;;5015082;28;20402;-86
2023/10/04 09:54:19;;;;;;;7.73;2.90;;;17.40;99.90;;;;;;5016221;28;20479;-85
2023/10/04 09:56:49;;;;;;;8.40;2.90;;;17.50;99.90;;;;;;4998029;28;20565;-87
2023/10/04 09:59:24;;;;;;;9.30;3.53;;;17.70;99.90;;;;;;5017611;28;20479;-87
2023/10/04 10:01:53;;;;;;;6.43;2.60;;;18.10;99.90;;;;;;5033903;28;20413;-84
2023/10/04 10:04:29;;;;;;;11.97;3.70;;;17.90;99.90;;;;;;5033401;28;20490;-85
2023/10/04 10:07:10;;;;;;;6.97;2.40;;;17.80;99.90;;;;;;5034599;28;20424;-86
2023/10/04 10:09:41;;;;;;;11.03;4.00;;;17.80;99.90;;;;;;5036137;28;20415;-85
2023/10/04 10:12:10;;;;;;;10.43;3.23;;;18.00;99.90;;;;;;5035527;28;20496;-86
2023/10/04 10:14:37;;;;;;;8.63;2.60;;;18.20;99.90;;;;;;5033895;28;20413;-86
2023/10/04 10:17:04;;;;;;;10.23;3.70;;;18.20;99.90;;;;;;5032775;28;20540;-86
2023/10/04 10:19:30;;;;;;;7.27;3.10;;;18.10;99.90;;;;;;5032893;28;20396;-86
2023/10/04 10:22:03;;;;;;;7.03;3.60;;;18.10;99.90;;;;;;5033992;28;20435;-86
2023/10/04 10:24:29;;;;;;;4.63;2.47;;;18.20;99.90;;;;;;5033663;28;20409;-90
2023/10/04 10:27:07;;;;;;;6.07;3.20;;;18.30;99.90;;;;;;5032844;28;20768;-86
2023/10/04 10:29:34;;;;;;;13.83;3.47;;;18.40;99.90;;;;;;5032479;28;20478;-85
2023/10/04 10:32:01;;;;;;;10.47;3.60;;;18.20;99.90;;;;;;5033480;28;20500;-86
2023/10/04 10:34:27;;;;;;;7.30;3.23;;;18.40;99.90;;;;;;5033373;28;20413;-85
2023/10/04 10:37:19;;;;;;;8.17;2.50;;;18.40;99.90;;;;;;5017268;28;20457;-85
2023/10/04 10:39:50;;;;;;;9.67;3.03;;;18.10;99.90;;;;;;5034402;28;20428;-85
2023/10/04 10:42:16;;;;;;;7.23;2.40;;;18.10;99.90;;;;;;5034909;28;20751;-87
2023/10/04 10:44:43;;;;;;;8.00;3.13;;;18.20;99.90;;;;;;5032795;28;20403;-84
2023/10/04 10:47:25;;;;;;;6.97;3.00;;;18.30;99.90;;;;;;5027686;28;20487;-84
2023/10/04 10:49:56;;;;;;;9.33;3.23;;;18.50;99.90;;;;;;5022245;28;20395;-85
2023/10/04 10:52:22;;;;;;;7.37;2.40;;;18.70;99.90;;;;;;5023968;28;20790;-86
2023/10/04 10:54:49;;;;;;;7.07;2.97;;;18.60;99.90;;;;;;5028989;28;20503;-85
2023/10/04 10:57:20;;;;;;;7.97;2.67;;;18.50;99.90;;;;;;5037168;28;20824;-85
2023/10/04 10:59:48;;;;;;;7.33;2.70;;;18.60;99.90;;;;;;5037002;28;20417;-85
2023/10/04 11:02:14;;;;;;;6.30;3.23;;;18.40;99.90;;;;;;5037837;28;20417;-85
2023/10/04 11:04:39;;;;;;;6.53;2.93;;;18.40;99.90;;;;;;5036496;28;20432;-85
2023/10/04 11:07:11;;;;;;;10.10;3.13;;;18.70;99.90;;;;;;5053791;28;20232;-87
2023/10/04 11:09:39;;;;;;;9.53;2.97;;;18.50;99.90;;;;;;5036579;28;20159;-86
2023/10/04 11:12:09;;;;;;;8.90;3.30;;;18.70;99.90;;;;;;5053654;28;20394;-86
2023/10/04 11:14:36;;;;;;;8.50;3.67;;;18.70;99.90;;;;;;5037139;28;20783;-86
2023/10/04 11:17:03;;;;;;;8.73;3.40;;;18.60;99.90;;;;;;5037886;28;21004;-84
2023/10/04 11:19:31;;;;;;;7.87;3.03;;;18.50;99.90;;;;;;5036272;28;20425;-85
2023/10/04 11:21:57;;;;;;;14.43;3.77;;;18.30;99.90;;;;;;5019978;28;20538;-85
2023/10/04 11:24:23;;;;;;;6.07;3.20;;;18.30;99.90;;;;;;5017870;28;20991;-86
2023/10/04 11:26:50;;;;;;;11.70;3.50;;;18.10;99.90;;;;;;5016656;28;20400;-86
2023/10/04 11:29:16;;;;;;;6.20;3.40;;;18.20;99.90;;;;;;5032759;28;20414;-86
2023/10/04 11:31:41;;;;;;;7.30;3.50;;;18.30;99.90;;;;;;5033596;28;20424;-86
2023/10/04 11:34:08;;;;;;;9.87;3.30;;;18.10;99.90;;;;;;5036314;28;20486;-87
2023/10/04 11:36:36;;;;;;;10.10;3.70;;;17.90;99.90;;;;;;5019703;28;20217;-86
2023/10/04 11:39:12;;;;;;;13.03;3.77;;;18.00;99.90;;;;;;5036628;28;20403;-86
2023/10/04 11:41:39;;;;;;;9.50;3.40;;;18.10;99.90;;;;;;5037076;28;20425;-87
2023/10/04 11:44:06;;;;;;;8.97;5.10;;;18.10;99.90;;;;;;5036738;28;20926;-86
2023/10/04 11:47:10;;;;;;;9.23;4.70;;;18.20;99.90;;;;;;5035254;28;20475;-85
2023/10/04 11:49:38;;;;;;;9.70;4.47;;;18.30;99.90;;;;;;5037321;28;20492;-87
2023/10/04 11:52:07;;;;;;;10.07;4.10;;;18.30;99.90;;;;;;5037055;28;20888;-86
2023/10/04 11:54:46;;;;;;;8.80;3.80;;;18.30;99.90;;;;;;5019209;28;20896;-86
2023/10/04 11:57:23;;;;;;;8.77;4.40;;;18.10;99.90;;;;;;5035470;28;20871;-85
2023/10/04 11:59:48;;;;;;;11.47;4.33;;;18.20;99.90;;;;;;5037274;28;20399;-87
2023/10/04 12:02:14;;;;;;;10.87;4.97;;;18.20;99.90;;;;;;5041301;28;20430;-83
2023/10/04 12:04:40;;;;;;;10.10;4.60;;;18.30;99.90;;;;;;5035867;28;20557;-86
2023/10/04 12:07:08;;;;;;;16.03;5.13;;;18.40;99.90;;;;;;5035441;28;20182;-84
2023/10/04 12:09:35;;;;;;;13.17;4.23;;;18.30;99.90;;;;;;5026890;28;20514;-84
2023/10/04 12:12:07;;;;;;;8.40;3.67;;;18.30;99.90;;;;;;5034108;28;20421;-87
2023/10/04 12:14:34;;;;;;;9.00;4.60;;;18.40;99.90;;;;;;5016774;28;20422;-86
2023/10/04 12:17:04;;;;;;;9.13;3.90;;;18.30;99.90;;;;;;5031865;28;20883;-87
2023/10/04 12:19:34;;;;;;;10.80;5.13;;;18.30;99.90;;;;;;5035832;28;20429;-86
2023/10/04 12:22:02;;;;;;;12.73;5.37;;;18.30;99.90;;;;;;5036885;28;20391;-89
2023/10/04 12:24:32;;;;;;;10.43;4.37;;;18.40;99.90;;;;;;5035191;28;20428;-86
2023/10/04 12:27:00;;;;;;;12.70;5.03;;;18.30;99.90;;;;;;5035296;28;20425;-85
2023/10/04 12:29:27;;;;;;;12.50;5.40;;;18.30;99.90;;;;;;5018841;28;20443;-86
2023/10/04 12:31:53;;;;;;;11.50;4.70;;;18.50;99.90;;;;;;5035199;28;20440;-86
2023/10/04 12:34:20;;;;;;;13.27;4.90;;;18.50;99.90;;;;;;5040813;28;20409;-84
2023/10/04 12:36:46;;;;;;;9.57;4.73;;;18.30;99.90;;;;;;5035324;28;20439;-85
2023/10/04 12:39:15;;;;;;;11.50;5.37;;;18.40;99.90;;;;;;5035210;28;20910;-86
2023/10/04 12:41:41;;;;;;;10.40;4.73;;;18.40;99.90;;;;;;5034731;28;20178;-84
2023/10/04 12:44:08;;;;;;;9.00;4.60;;;18.20;99.90;;;;;;5001307;28;20426;-85
2023/10/04 12:46:34;;;;;;;11.43;4.87;;;18.10;99.90;;;;;;5017639;28;20591;-86
2023/10/04 12:49:01;;;;;;;12.37;4.43;;;18.20;99.90;;;;;;5034425;28;20486;-85
2023/10/04 12:51:29;;;;;;;10.87;4.73;;;18.20;99.90;;;;;;5018411;28;20660;-83